CST,Max TemperatureF,Mean TemperatureF,Min TemperatureF,Max Dew PointF,MeanDew PointF,Min DewpointF,Max Humidity, Mean Humidity, Min Humidity, Max Sea Level PressureIn, Mean Sea Level PressureIn, Min Sea Level PressureIn, Max VisibilityMiles, Mean VisibilityMiles, Min VisibilityMiles, Max Wind SpeedMPH, Mean Wind SpeedMPH, Max Gust SpeedMPH,PrecipitationIn, CloudCover, Events, WindDirDegrees
2013-12-1,42,33,24,28,25,21,93,75,53,30.15,30.09,29.99,10,8,5,12,6,,0.00,2,,38
2013-12-2,41,34,28,34,30,27,93,78,65,29.98,29.82,29.70,9,5,2,17,9,23,0.00,5,,115
2013-12-3,46,42,37,45,38,34,100,90,87,29.70,29.67,29.63,3,1,0,13,8,,0.00,8,,115
2013-12-4,50,39,28,48,41,21,94,89,74,29.79,29.63,29.49,10,3,0,26,10,34,0.01,8,,172
2013-12-5,26,20,15,21,11,7,80,69,58,30.32,30.12,29.80,10,10,10,29,21,34,0.00,3,,290
2013-12-6,17,11,5,7,3,0,79,67,53,30.61,30.45,30.31,10,10,10,15,11,22,0.00,1,,317
2013-12-7,15,8,0,3,-1,-6,85,70,45,30.75,30.66,30.59,10,10,10,9,6,,0.00,0,,327
2013-12-8,21,16,10,18,12,3,86,76,53,30.60,30.24,30.00,10,6,1,16,9,21,0.00,7,,80
2013-12-9,21,6,-9,18,0,-17,86,76,56,30.26,30.16,29.99,10,9,1,25,12,29,0.00,2,,269
2013-12-10,17,6,-5,10,4,-8,100,70,58,30.30,30.15,29.99,10,9,2,31,13,37,0.00,3,,255
2013-12-11,15,5,-5,12,2,-15,92,75,56,30.60,30.44,30.27,10,6,0,18,6,22,0.00,4,,295
2013-12-12,17,5,-7,10,3,-11,100,73,62,30.54,30.34,30.21,10,10,8,17,7,17,0.00,1,,221
2013-12-13,26,14,3,23,13,-2,100,80,69,30.21,30.11,30.05,10,9,3,20,8,23,0.00,2,,83
2013-12-14,26,20,14,21,18,9,86,82,73,30.08,30.04,30.01,10,7,2,18,15,23,0.00,6,,2
2013-12-15,12,9,6,9,4,0,85,73,67,30.14,30.10,30.05,10,9,1,20,14,,0.00,6,,299
2013-12-16,19,14,10,18,8,3,93,78,67,30.14,30.09,30.01,10,8,2,15,6,,0.00,8,,94
2013-12-17,33,22,12,25,16,7,93,77,60,30.19,30.08,30.02,10,8,1,28,13,34,0.00,2,,272
2013-12-18,37,22,8,25,15,1,92,72,52,30.18,29.98,29.82,10,10,10,18,9,24,0.00,0,,182
2013-12-19,33,27,21,30,26,18,93,84,75,29.92,29.85,29.78,10,8,2,18,9,22,0.09,3,,77
2013-12-20,33,30,26,30,25,21,93,88,80,29.88,29.83,29.78,10,5,1,20,12,20,0.05,8,,26
2013-12-21,28,26,24,27,24,21,93,87,80,29.89,29.82,29.68,7,4,2,9,2,,0.00,8,,316
2013-12-22,28,20,12,27,19,9,93,82,73,30.21,29.92,29.68,10,7,0,0,0,,0.00,7,,-1
2013-12-23,14,6,-2,9,-1,-9,85,77,71,30.43,30.30,30.22,10,10,8,,,,0.00,3,,-1
2013-12-24,17,2,-13,10,1,-18,86,77,66,30.58,30.43,30.30,10,10,3,,,,0.00,5,,-1
2013-12-25,24,19,12,21,16,7,86,80,68,30.29,30.21,30.15,10,7,0,,,,0.00,7,,-1
2013-12-26,33,20,6,27,17,0,93,80,65,30.26,30.21,30.14,10,9,1,13,7,,0.00,5,,235
2013-12-27,37,26,14,28,22,9,93,79,65,30.29,30.20,30.11,10,6,0,17,4,,0.00,0,,223
2013-12-28,41,34,26,30,27,23,93,75,61,30.11,29.97,29.81,10,10,9,17,10,,0.00,0,,212
2013-12-29,37,16,-7,28,11,-15,93,74,63,30.30,30.05,29.79,10,10,5,25,17,31,0.00,5,,308
2013-12-30,6,0,-7,1,-4,-17,92,76,61,30.34,30.26,30.22,10,7,2,6,2,,0.00,5,,67
2013-12-31,10,0,-11,5,-2,-17,92,82,71,30.36,30.29,30.22,10,9,2,17,4,,0.00,6,,37